createdAt,value
2023-07-03T00:01:23.767Z,95298.19
2023-07-03T00:04:12.153Z,95303.69
2023-07-03T00:06:58.428Z,95302.88
2023-07-03T00:09:44.797Z,95299.72
2023-07-03T00:12:31.549Z,95300.53
2023-07-03T00:15:17.816Z,95302.06
2023-07-03T00:18:04.101Z,95300.47
2023-07-03T00:20:55.864Z,95295.72
2023-07-03T00:23:42.034Z,95296.50
2023-07-03T00:26:27.883Z,95300.03
2023-07-03T00:29:14.240Z,95296.44
2023-07-03T00:32:01.343Z,95296.44
2023-07-03T00:34:47.745Z,95294.88
2023-07-03T00:37:34.456Z,95295.66
2023-07-03T00:40:20.630Z,95301.16
2023-07-03T00:43:06.820Z,95285.81
2023-07-03T00:45:52.919Z,95297.19
2023-07-03T00:48:41.648Z,95305.06
2023-07-03T00:51:27.962Z,95305.03
2023-07-03T00:54:14.062Z,95293.28
2023-07-03T00:57:00.418Z,95300.31
2023-07-03T00:59:46.608Z,95294.00
2023-07-03T01:02:36.727Z,95293.16
2023-07-03T01:05:30.339Z,95296.69
2023-07-03T01:08:17.531Z,95298.56
2023-07-03T01:11:03.840Z,95278.50
2023-07-03T01:13:52.605Z,95292.34
2023-07-03T01:16:39.784Z,95290.75
2023-07-03T01:19:32.575Z,95286.41
2023-07-03T01:22:29.919Z,95287.63
2023-07-03T01:25:20.002Z,95300.22
2023-07-03T01:28:08.734Z,95289.16
2023-07-03T01:30:56.467Z,95289.97
2023-07-03T01:33:45.672Z,95304.88
2023-07-03T01:36:32.638Z,95299.38
2023-07-03T01:39:18.819Z,95293.00
2023-07-03T01:42:05.665Z,95308.81
2023-07-03T01:44:51.600Z,95288.34
2023-07-03T01:47:38.414Z,95293.41
2023-07-03T01:50:28.581Z,95294.53
2023-07-03T01:53:39.780Z,95298.03
2023-07-03T01:56:38.620Z,95298.41
2023-07-03T01:59:30.416Z,95282.66
2023-07-03T02:02:23.251Z,95296.06
2023-07-03T02:05:17.368Z,95294.44
2023-07-03T02:08:04.241Z,95295.56
2023-07-03T02:10:51.259Z,95288.91
2023-07-03T02:13:37.251Z,95298.38
2023-07-03T02:16:24.349Z,95301.47
2023-07-03T02:19:12.051Z,95308.97
2023-07-03T02:21:58.113Z,95279.75
2023-07-03T02:24:44.133Z,95302.22
2023-07-03T02:27:30.320Z,95301.38
2023-07-03T02:30:16.550Z,95286.38
2023-07-03T02:33:03.166Z,95298.97
2023-07-03T02:35:50.502Z,95316.38
2023-07-03T02:38:36.995Z,95315.50
2023-07-03T02:41:24.287Z,95321.44
2023-07-03T02:44:10.290Z,95319.44
2023-07-03T02:46:58.335Z,95316.66
2023-07-03T02:49:44.782Z,95310.78
2023-07-03T02:52:32.557Z,95318.59
2023-07-03T02:55:18.969Z,95320.97
2023-07-03T02:58:04.869Z,95313.84
2023-07-03T03:00:55.588Z,95319.34
2023-07-03T03:03:41.920Z,95320.94
2023-07-03T03:06:27.905Z,95324.84
2023-07-03T03:09:15.186Z,95326.44
2023-07-03T03:12:01.020Z,95332.28
2023-07-03T03:14:47.325Z,95333.09
2023-07-03T03:17:33.660Z,95330.31
2023-07-03T03:20:20.165Z,95337.00
2023-07-03T03:23:06.800Z,95340.53
2023-07-03T03:25:55.263Z,95330.69
2023-07-03T03:28:41.591Z,95335.03
2023-07-03T03:31:29.670Z,95323.16
2023-07-03T03:34:20.450Z,95328.69
2023-07-03T03:37:08.723Z,95326.31
2023-07-03T03:39:55.712Z,95317.66
2023-07-03T03:42:42.636Z,95318.44
2023-07-03T03:45:28.741Z,95325.88
2023-07-03T03:48:15.246Z,95334.13
2023-07-03T03:51:02.291Z,95327.84
2023-07-03T03:53:51.182Z,95329.84
2023-07-03T03:56:37.165Z,95336.94
2023-07-03T03:59:25.310Z,95333.75
2023-07-03T04:02:12.499Z,95337.78
2023-07-03T04:04:58.802Z,95337.00
2023-07-03T04:07:45.200Z,95344.50
2023-07-03T04:10:31.513Z,95344.06
2023-07-03T04:13:17.509Z,95337.84
2023-07-03T04:16:05.375Z,95336.66
2023-07-03T04:18:51.443Z,95342.16
2023-07-03T04:21:37.378Z,95349.25
2023-07-03T04:24:23.518Z,95350.81
2023-07-03T04:27:09.559Z,95352.41
2023-07-03T04:29:55.324Z,95354.72
2023-07-03T04:32:41.135Z,95356.31
2023-07-03T04:35:26.942Z,95347.66
2023-07-03T04:38:12.816Z,95356.31
2023-07-03T04:40:58.722Z,95363.38
2023-07-03T04:43:47.666Z,95364.97
2023-07-03T04:46:34.459Z,95365.75
2023-07-03T04:49:20.493Z,95358.38
2023-07-03T04:52:07.888Z,95363.94
2023-07-03T04:54:53.852Z,95371.03
2023-07-03T04:57:40.502Z,95374.63
2023-07-03T05:00:28.683Z,95372.69
2023-07-03T05:03:15.189Z,95377.44
2023-07-03T05:06:00.971Z,95378.66
2023-07-03T05:08:48.102Z,95388.53
2023-07-03T05:11:34.442Z,95379.44
2023-07-03T05:14:20.235Z,95395.25
2023-07-03T05:17:06.466Z,95400.78
2023-07-03T05:19:53.177Z,95399.22
2023-07-03T05:22:39.982Z,95398.47
2023-07-03T05:25:25.919Z,95401.63
2023-07-03T05:28:12.326Z,95404.00
2023-07-03T05:31:00.318Z,95408.75
2023-07-03T05:33:46.143Z,95395.81
2023-07-03T05:36:32.349Z,95405.69
2023-07-03T05:39:18.186Z,95400.97
2023-07-03T05:42:04.411Z,95411.19
2023-07-03T05:44:51.217Z,95404.13
2023-07-03T05:47:37.613Z,95409.66
2023-07-03T05:50:23.728Z,95418.31
2023-07-03T05:53:10.383Z,95408.91
2023-07-03T05:55:57.652Z,95406.97
2023-07-03T05:58:43.884Z,95406.63
2023-07-03T06:01:44.819Z,95404.31
2023-07-03T06:04:37.903Z,95403.56
2023-07-03T06:07:30.230Z,95386.97
2023-07-03T06:10:16.783Z,95412.69
2023-07-03T06:13:03.230Z,95410.72
2023-07-03T06:15:50.312Z,95414.69
2023-07-03T06:18:36.683Z,95404.09
2023-07-03T06:21:22.689Z,95408.03
2023-07-03T06:24:10.634Z,95423.38
2023-07-03T06:26:58.380Z,95417.91
2023-07-03T06:29:44.719Z,95433.25
2023-07-03T06:32:32.933Z,95429.34
2023-07-03T06:35:19.046Z,95428.16
2023-07-03T06:38:08.391Z,95425.78
2023-07-03T06:40:58.938Z,95416.38
2023-07-03T06:43:44.835Z,95427.03
2023-07-03T06:46:30.746Z,95421.94
2023-07-03T06:49:16.971Z,95417.22
2023-07-03T06:52:02.721Z,95408.59
2023-07-03T06:54:49.090Z,95415.28
2023-07-03T06:57:36.048Z,95417.28
2023-07-03T07:00:21.991Z,95414.91
2023-07-03T07:03:09.471Z,95416.50
2023-07-03T07:05:57.039Z,95421.25
2023-07-03T07:08:43.956Z,95416.59
2023-07-03T07:11:37.977Z,95412.66
2023-07-03T07:14:28.757Z,95414.97
2023-07-03T07:17:14.663Z,95413.44
2023-07-03T07:20:01.240Z,95407.19
2023-07-03T07:22:49.314Z,95408.00
2023-07-03T07:25:35.972Z,95406.81
2023-07-03T07:28:23.197Z,95408.78
2023-07-03T07:31:09.418Z,95404.84
2023-07-03T07:33:56.201Z,95400.16
2023-07-03T07:36:42.126Z,95400.94
2023-07-03T07:39:28.387Z,95402.53
2023-07-03T07:42:14.216Z,95401.78
2023-07-03T07:45:00.867Z,95399.41
2023-07-03T07:47:46.711Z,95400.22
2023-07-03T07:50:37.247Z,95402.56
2023-07-03T07:53:23.148Z,95412.84
2023-07-03T07:56:11.023Z,95413.25
2023-07-03T07:58:57.731Z,95421.13
2023-07-03T08:01:45.040Z,95420.38
2023-07-03T08:04:31.036Z,95422.75
2023-07-03T08:07:16.987Z,95418.44
2023-07-03T08:10:03.127Z,95420.78
2023-07-03T08:12:53.423Z,95423.56
2023-07-03T08:15:39.651Z,95418.47
2023-07-03T08:18:26.286Z,95416.88
2023-07-03T08:21:12.155Z,95422.44
2023-07-03T08:23:58.112Z,95413.78
2023-07-03T08:26:50.151Z,95414.19
2023-07-03T08:29:36.096Z,95411.81
2023-07-03T08:32:22.391Z,95415.34
2023-07-03T08:37:57.323Z,95415.38
2023-07-03T08:40:43.501Z,95414.59
2023-07-03T08:43:41.983Z,95411.44
2023-07-03T08:46:30.335Z,95404.34
2023-07-03T08:49:20.370Z,95409.88
2023-07-03T08:52:08.531Z,95395.69
2023-07-03T08:54:56.522Z,95406.72
2023-07-03T08:57:42.605Z,95407.53
2023-07-03T09:00:30.699Z,95402.41
2023-07-03T09:03:55.661Z,95399.66
2023-07-03T09:06:44.571Z,95405.16
2023-07-03T09:09:33.135Z,95393.34
2023-07-03T09:12:24.641Z,95398.88
2023-07-03T09:15:24.193Z,95395.69
2023-07-03T09:18:20.271Z,95403.19
2023-07-03T09:21:06.256Z,95407.94
2023-07-03T09:23:58.964Z,95404.41
2023-07-03T09:26:48.009Z,95401.63
2023-07-03T09:29:36.298Z,95404.38
2023-07-03T09:32:40.700Z,95398.13
2023-07-03T09:35:35.719Z,95398.09
2023-07-03T09:38:25.154Z,95405.59
2023-07-03T09:41:11.852Z,95404.41
2023-07-03T09:43:58.364Z,95393.00
2023-07-03T09:46:45.499Z,95413.47
2023-07-03T09:49:32.239Z,95404.38
2023-07-03T09:52:18.572Z,95409.91
2023-07-03T09:55:05.240Z,95402.81
2023-07-03T09:57:51.348Z,95408.31
2023-07-03T10:00:48.882Z,95405.91
2023-07-03T10:03:36.916Z,95406.72
2023-07-03T10:12:25.405Z,95408.28
2023-07-03T10:15:19.441Z,95409.84
2023-07-03T10:18:10.917Z,95409.81
2023-07-03T10:20:57.551Z,95406.66
2023-07-03T10:23:45.616Z,95409.81
2023-07-03T10:26:39.551Z,95415.31
2023-07-03T10:29:29.750Z,95408.19
2023-07-03T10:32:17.724Z,95410.53
2023-07-03T10:35:34.773Z,95408.94
2023-07-03T10:38:32.954Z,95408.13
2023-07-03T10:41:45.619Z,95405.75
2023-07-03T10:44:48.460Z,95404.97
2023-07-03T10:47:55.682Z,95409.25
2023-07-03T10:50:58.352Z,95407.28
2023-07-03T10:53:49.073Z,95404.88
2023-07-03T10:56:45.670Z,95404.88
2023-07-03T10:59:34.824Z,95393.00
2023-07-03T11:02:43.374Z,95384.34
2023-07-03T11:05:35.941Z,95392.25
2023-07-03T11:08:59.222Z,95390.22
2023-07-03T11:12:05.192Z,95377.16
2023-07-03T11:15:06.461Z,95383.44
2023-07-03T11:24:19.307Z,95382.56
2023-07-03T11:30:17.728Z,95386.03
2023-07-03T11:33:06.624Z,95383.28
2023-07-03T11:35:57.993Z,95378.91
2023-07-03T11:45:01.585Z,95381.63
2023-07-03T11:47:47.639Z,95386.38
2023-07-03T11:50:35.389Z,95386.34
2023-07-03T11:53:53.900Z,95380.41
2023-07-03T11:56:45.103Z,95372.91
2023-07-03T11:59:34.069Z,95363.78
2023-07-03T12:02:19.999Z,95383.09
2023-07-03T12:05:07.147Z,95377.16
2023-07-03T12:07:57.578Z,95368.88
2023-07-03T12:10:51.032Z,95365.28
2023-07-03T12:13:43.175Z,95360.84
2023-07-03T12:16:32.610Z,95356.03
2023-07-03T12:19:18.800Z,95344.94
2023-07-03T12:22:05.368Z,95348.03
2023-07-03T12:25:01.725Z,95353.47
2023-07-03T12:27:49.040Z,95347.47
2023-07-03T12:30:36.176Z,95347.75
2023-07-03T12:33:22.215Z,95347.66
2023-07-03T12:36:08.821Z,95343.63
2023-07-03T12:38:55.556Z,95345.19
2023-07-03T12:41:41.806Z,95341.19
2023-07-03T12:44:28.100Z,95347.44
2023-07-03T12:47:17.051Z,95342.66
2023-07-03T12:50:03.552Z,95351.34
2023-07-03T12:52:57.716Z,95345.78
2023-07-03T12:55:47.906Z,95335.53
2023-07-03T12:58:34.683Z,95347.72
2023-07-03T13:01:22.084Z,95351.28
2023-07-03T13:04:08.358Z,95350.41
2023-07-03T13:06:54.813Z,95342.47
2023-07-03T13:09:44.832Z,95351.06
2023-07-03T13:12:31.030Z,95353.72
2023-07-03T13:15:35.729Z,95349.22
2023-07-03T13:18:24.028Z,95346.75
2023-07-03T13:21:10.682Z,95350.94
2023-07-03T13:24:07.097Z,95342.41
2023-07-03T13:26:53.365Z,95352.19
2023-07-03T13:29:40.364Z,95344.47
2023-07-03T13:32:27.015Z,95349.88
2023-07-03T13:35:13.625Z,95355.72
2023-07-03T13:38:20.035Z,95355.63
2023-07-03T13:41:06.530Z,95353.72
2023-07-03T13:43:55.934Z,95351.53
2023-07-03T13:46:44.479Z,95353.34
2023-07-03T13:49:30.362Z,95349.28
2023-07-03T13:52:16.198Z,95342.22
2023-07-03T13:55:02.320Z,95339.94
2023-07-03T13:57:48.326Z,95335.72
2023-07-03T14:00:34.391Z,95348.75
2023-07-03T14:03:20.569Z,95347.19
2023-07-03T14:06:09.080Z,95343.69
2023-07-03T14:08:55.264Z,95340.91
2023-07-03T14:11:43.123Z,95347.53
2023-07-03T14:14:29.404Z,95356.72
2023-07-03T14:17:15.540Z,95351.28
2023-07-03T14:20:02.163Z,95351.00
2023-07-03T14:22:49.683Z,95351.53
2023-07-03T14:25:36.063Z,95347.69
2023-07-03T14:28:21.918Z,95343.88
2023-07-03T14:31:10.298Z,95343.97
2023-07-03T14:33:56.419Z,95350.84
2023-07-03T14:36:42.227Z,95341.06
2023-07-03T14:39:28.151Z,95342.72
2023-07-03T14:42:15.390Z,95340.44
2023-07-03T14:45:01.411Z,95345.25
2023-07-03T14:47:47.354Z,95345.72
2023-07-03T14:50:33.225Z,95343.75
2023-07-03T14:53:21.339Z,95337.94
2023-07-03T14:56:07.788Z,95338.00
2023-07-03T14:58:53.842Z,95333.97
2023-07-03T15:01:41.657Z,95330.59
2023-07-03T15:04:29.235Z,95326.16
2023-07-03T15:07:15.372Z,95319.44
2023-07-03T15:10:01.629Z,95322.94
2023-07-03T15:12:48.066Z,95321.78
2023-07-03T15:15:35.343Z,95321.59
2023-07-03T15:18:23.042Z,95311.34
2023-07-03T15:21:09.075Z,95316.34
2023-07-03T15:23:55.058Z,95332.09
2023-07-03T15:26:41.252Z,95329.91
2023-07-03T15:29:27.995Z,95334.38
2023-07-03T15:32:15.376Z,95322.88
2023-07-03T15:35:01.703Z,95327.97
2023-07-03T15:37:47.599Z,95322.38
2023-07-03T15:40:33.527Z,95330.44
2023-07-03T15:43:19.776Z,95327.41
2023-07-03T15:46:10.860Z,95324.81
2023-07-03T15:48:59.817Z,95325.72
2023-07-03T15:51:45.808Z,95329.38
2023-07-03T15:54:32.757Z,95330.69
2023-07-03T15:57:19.247Z,95326.03
2023-07-03T16:00:06.427Z,95315.09
2023-07-03T16:02:52.215Z,95322.31
2023-07-03T16:05:37.997Z,95328.31
2023-07-03T16:08:24.067Z,95334.31
2023-07-03T16:11:12.133Z,95328.06
2023-07-03T16:13:59.631Z,95327.31
2023-07-03T16:16:46.739Z,95323.41
2023-07-03T16:19:32.882Z,95325.06
2023-07-03T16:22:22.888Z,95324.72
2023-07-03T16:25:09.179Z,95335.81
2023-07-03T16:27:55.336Z,95328.41
2023-07-03T16:30:41.099Z,95339.88
2023-07-03T16:33:27.106Z,95337.94
2023-07-03T16:36:15.798Z,95348.63
2023-07-03T16:39:05.717Z,95346.72
2023-07-03T16:41:51.742Z,95349.13
2023-07-03T16:44:37.632Z,95338.84
2023-07-03T16:47:23.896Z,95342.81
2023-07-03T16:50:10.292Z,95338.09
2023-07-03T16:52:56.187Z,95342.09
2023-07-03T16:55:42.998Z,95332.63
2023-07-03T16:58:34.782Z,95333.41
2023-07-03T17:01:25.390Z,95338.97
2023-07-03T17:04:12.344Z,95324.78
2023-07-03T17:06:58.290Z,95339.03
2023-07-03T17:09:45.497Z,95345.78
2023-07-03T17:12:31.732Z,95347.00
2023-07-03T17:15:19.398Z,95341.47
2023-07-03T17:18:05.804Z,95342.31
2023-07-03T17:20:53.684Z,95347.84
2023-07-03T17:23:39.740Z,95347.09
2023-07-03T17:26:31.914Z,95351.06
2023-07-03T17:29:17.778Z,95347.19
2023-07-03T17:32:03.884Z,95332.97
2023-07-03T17:34:49.945Z,95351.88
2023-07-03T17:37:36.221Z,95355.47
2023-07-03T17:40:22.341Z,95353.53
2023-07-03T17:43:08.870Z,95360.63
2023-07-03T17:45:55.277Z,95358.69
2023-07-03T17:48:42.564Z,95357.53
2023-07-03T17:51:35.183Z,95373.34
2023-07-03T17:54:21.722Z,95362.72
2023-07-03T17:57:08.005Z,95364.75
2023-07-03T17:59:53.956Z,95367.13
2023-07-03T18:02:42.170Z,95358.09
2023-07-03T18:05:28.227Z,95365.63
2023-07-03T18:08:14.375Z,95368.00
2023-07-03T18:11:00.238Z,95360.16
2023-07-03T18:13:47.914Z,95369.25
2023-07-03T18:16:34.217Z,95374.41
2023-07-03T18:19:22.276Z,95379.94
2023-07-03T18:22:08.017Z,95386.28
2023-07-03T18:24:54.186Z,95384.75
2023-07-03T18:27:40.388Z,95387.91
2023-07-03T18:30:26.365Z,95388.00
2023-07-03T18:33:12.624Z,95410.91
2023-07-03T18:35:58.627Z,95399.47
2023-07-03T18:38:46.894Z,95405.00
2023-07-03T18:41:34.576Z,95410.16
2023-07-03T18:44:20.799Z,95404.69
2023-07-03T18:47:08.272Z,95408.66
2023-07-03T18:49:54.076Z,95399.22
2023-07-03T18:52:40.373Z,95411.47
2023-07-03T18:55:27.238Z,95415.84
2023-07-03T18:58:13.224Z,95420.63
2023-07-03T19:00:59.581Z,95422.63
2023-07-03T19:03:45.706Z,95432.16
2023-07-03T19:06:32.393Z,95438.84
2023-07-03T19:09:18.888Z,95440.47
2023-07-03T19:12:07.311Z,95441.28
2023-07-03T19:14:53.757Z,95446.84
2023-07-03T19:17:40.873Z,95447.63
2023-07-03T19:20:28.964Z,95448.06
2023-07-03T19:23:14.979Z,95464.25
2023-07-03T19:26:00.678Z,95450.84
2023-07-03T19:28:52.785Z,95449.69
2023-07-03T19:31:38.921Z,95455.59
2023-07-03T19:34:25.067Z,95454.03
2023-07-03T19:37:11.009Z,95461.91
2023-07-03T19:39:58.102Z,95461.56
2023-07-03T19:42:44.226Z,95463.13
2023-07-03T19:45:33.557Z,95470.22
2023-07-03T19:48:19.637Z,95464.31
2023-07-03T19:51:05.904Z,95460.34
2023-07-03T19:53:51.954Z,95462.72
2023-07-03T19:56:37.689Z,95461.56
2023-07-03T19:59:23.642Z,95466.69
2023-07-03T20:02:09.790Z,95467.47
2023-07-03T20:04:56.710Z,95461.97
2023-07-03T20:07:42.588Z,95461.19
2023-07-03T20:10:30.300Z,95467.47
2023-07-03T20:13:16.695Z,95471.44
2023-07-03T20:16:04.178Z,95471.84
2023-07-03T20:18:51.093Z,95483.28
2023-07-03T20:21:37.194Z,95493.53
2023-07-03T20:24:23.051Z,95489.56
2023-07-03T20:27:09.552Z,95489.19
2023-07-03T20:30:07.272Z,95499.06
2023-07-03T20:32:53.697Z,95503.75
2023-07-03T20:35:39.739Z,95497.03
2023-07-03T20:38:29.140Z,95499.81
2023-07-03T20:41:16.499Z,95501.34
2023-07-03T20:44:05.910Z,95504.91
2023-07-03T20:46:54.263Z,95494.25
2023-07-03T20:49:40.014Z,95498.19
2023-07-03T20:52:26.454Z,95504.47
2023-07-03T20:55:36.305Z,95504.47
2023-07-03T20:58:22.335Z,95508.41
2023-07-03T21:01:14.998Z,95509.94
2023-07-03T21:04:04.305Z,95509.16
2023-07-03T21:06:51.032Z,95508.38
2023-07-03T21:09:38.391Z,95515.44
2023-07-03T21:12:24.202Z,95520.97
2023-07-03T21:15:11.587Z,95507.56
2023-07-03T21:18:01.200Z,95514.63
2023-07-03T21:20:47.167Z,95515.44
2023-07-03T21:23:32.945Z,95520.91
2023-07-03T21:26:21.329Z,95522.47
2023-07-03T21:29:07.629Z,95529.53
2023-07-03T21:31:53.722Z,95518.44
2023-07-03T21:34:40.792Z,95536.56
2023-07-03T21:37:26.843Z,95539.28
2023-07-03T21:40:13.928Z,95538.50
2023-07-03T21:42:59.982Z,95538.50
2023-07-03T21:45:46.144Z,95531.00
2023-07-03T21:48:35.492Z,95538.13
2023-07-03T21:51:21.379Z,95532.97
2023-07-03T21:54:08.549Z,95531.78
2023-07-03T21:56:54.302Z,95529.06
2023-07-03T21:59:41.289Z,95534.94
2023-07-03T22:02:27.117Z,95538.88
2023-07-03T22:05:17.754Z,95538.84
2023-07-03T22:08:06.157Z,95533.34
2023-07-03T22:10:52.490Z,95524.66
2023-07-03T22:13:38.268Z,95528.59
2023-07-03T22:16:24.306Z,95531.69
2023-07-03T22:19:10.844Z,95534.03
2023-07-03T22:22:00.077Z,95535.59
2023-07-03T22:24:45.748Z,95530.41
2023-07-03T22:27:31.674Z,95541.06
2023-07-03T22:30:17.787Z,95530.81
2023-07-03T22:33:03.882Z,95533.94
2023-07-03T22:35:51.489Z,95537.06
2023-07-03T22:38:37.841Z,95533.91
2023-07-03T22:41:23.869Z,95533.91
2023-07-03T22:44:09.760Z,95536.28
2023-07-03T22:46:56.654Z,95534.69
2023-07-03T22:49:42.852Z,95535.44
2023-07-03T22:52:30.935Z,95537.78
2023-07-03T22:55:19.402Z,95529.91
2023-07-03T22:58:05.288Z,95531.44
2023-07-03T23:00:51.127Z,95524.78
2023-07-03T23:03:40.017Z,95524.69
2023-07-03T23:06:25.902Z,95532.16
2023-07-03T23:09:12.697Z,95525.09
2023-07-03T23:11:58.722Z,95527.81
2023-07-03T23:14:52.043Z,95534.47
2023-07-03T23:17:37.908Z,95528.16
2023-07-03T23:20:24.000Z,95534.84
2023-07-03T23:23:09.841Z,95529.72
2023-07-03T23:26:12.213Z,95531.63
2023-07-03T23:28:58.609Z,95531.97
2023-07-03T23:31:45.697Z,95534.34
2023-07-03T23:34:31.748Z,95535.09
2023-07-03T23:37:18.225Z,95517.75
2023-07-03T23:40:09.095Z,95526.38
2023-07-03T23:42:55.888Z,95521.66
2023-07-03T23:45:44.466Z,95527.53
2023-07-03T23:48:31.766Z,95527.13
2023-07-03T23:51:18.024Z,95527.88
2023-07-03T23:54:06.936Z,95526.28
2023-07-03T23:56:53.375Z,95528.63
2023-07-03T23:59:39.428Z,95515.22
